Time;durP1;ratioP1;P1;durP2;ratioP2;P2;SDS_P1;SDS_P2;PMS_P1;PMS_P2;Temp;Humidity;BMP_temperature;BMP_pressure;BME280_temperature;BME280_humidity;BME280_pressure;Samples;Min_cycle;Max_cycle;Signal;HPM_P1;HPM_P2
2022/11/29 00:01:31;;;;;;;237.40;46.38;;;;;;;7.98;100.00;101339.66;4888530;29;20553;-73
2022/11/29 00:03:57;;;;;;;233.73;47.55;;;;;;;8.03;100.00;101339.44;4887415;29;20048;-75
2022/11/29 00:06:28;;;;;;;243.35;49.38;;;;;;;8.06;100.00;101339.31;4889033;29;20044;-76
2022/11/29 00:08:56;;;;;;;242.43;49.20;;;;;;;8.02;100.00;101329.75;4889059;29;20080;-74
2022/11/29 00:14:10;;;;;;;268.88;49.90;;;;;;;7.96;100.00;101338.00;4882659;29;20143;-75
2022/11/29 00:16:36;;;;;;;295.08;51.78;;;;;;;7.94;100.00;101329.25;4889662;29;20036;-73
2022/11/29 00:19:02;;;;;;;277.63;49.42;;;;;;;7.87;100.00;101330.44;4890336;29;20119;-77
2022/11/29 00:21:30;;;;;;;308.77;51.80;;;;;;;7.93;100.00;101327.50;4888971;29;20048;-74
2022/11/29 00:23:56;;;;;;;251.38;47.67;;;;;;;7.91;100.00;101338.19;4886626;29;20057;-74
2022/11/29 00:26:21;;;;;;;329.85;52.38;;;;;;;7.89;100.00;101340.06;4888848;29;20044;-75
2022/11/29 00:28:47;;;;;;;311.02;53.28;;;;;;;7.98;100.00;101344.09;4887765;29;20091;-75
2022/11/29 00:31:18;;;;;;;282.92;49.55;;;;;;;8.02;100.00;101341.22;4888579;29;20045;-75
2022/11/29 00:33:44;;;;;;;351.10;57.88;;;;;;;7.89;100.00;101342.72;4875242;29;20036;-75
2022/11/29 00:36:10;;;;;;;339.02;56.35;;;;;;;7.91;100.00;101350.63;4888239;29;20208;-75
2022/11/29 00:38:38;;;;;;;328.27;54.03;;;;;;;7.90;100.00;101351.56;4887568;29;20084;-73
2022/11/29 00:41:04;;;;;;;324.05;49.92;;;;;;;7.89;100.00;101350.69;4887610;29;20084;-75
2022/11/29 00:43:29;;;;;;;279.30;44.53;;;;;;;7.69;100.00;101359.53;4875803;29;20048;-74
2022/11/29 00:45:55;;;;;;;276.80;46.83;;;;;;;7.60;100.00;101359.06;4886605;29;20044;-76
2022/11/29 00:48:21;;;;;;;290.25;47.55;;;;;;;7.73;100.00;101368.19;4888336;29;20048;-75
2022/11/29 00:50:46;;;;;;;247.77;45.88;;;;;;;7.82;100.00;101366.94;4898637;29;20072;-75
2022/11/29 00:53:12;;;;;;;344.83;47.97;;;;;;;7.78;100.00;101374.16;4887643;29;20848;-75
2022/11/29 00:55:37;;;;;;;288.65;47.53;;;;;;;7.87;100.00;101376.44;4879034;29;20621;-75
2022/11/29 00:58:02;;;;;;;352.55;52.60;;;;;;;7.84;100.00;101373.94;4887240;29;20406;-75
2022/11/29 01:00:28;;;;;;;283.95;47.95;;;;;;;7.86;100.00;101369.41;4887666;29;20773;-74
2022/11/29 01:02:53;;;;;;;320.92;52.03;;;;;;;7.85;100.00;101372.13;4886955;29;20071;-75
2022/11/29 01:05:19;;;;;;;303.50;51.28;;;;;;;7.84;100.00;101373.06;4887337;29;20573;-75
2022/11/29 01:07:44;;;;;;;294.63;46.75;;;;;;;7.85;100.00;101370.34;4897961;29;20769;-75
2022/11/29 01:10:10;;;;;;;285.92;47.33;;;;;;;7.82;100.00;101372.25;4890064;29;20051;-76
2022/11/29 01:12:36;;;;;;;374.20;49.88;;;;;;;7.89;100.00;101376.38;4888726;29;20876;-76
2022/11/29 01:15:04;;;;;;;303.02;49.10;;;;;;;7.85;100.00;101386.25;4890123;29;20131;-74
2022/11/29 01:17:29;;;;;;;267.63;43.85;;;;;;;7.87;100.00;101384.38;4897373;29;20131;-76
2022/11/29 01:19:55;;;;;;;277.48;47.40;;;;;;;7.78;100.00;101385.69;4889688;29;20040;-76
2022/11/29 01:22:20;;;;;;;343.98;50.80;;;;;;;7.80;100.00;101382.94;4889789;29;20068;-75
2022/11/29 01:24:45;;;;;;;247.57;45.67;;;;;;;7.84;100.00;101384.53;4888115;29;20051;-75
2022/11/29 01:27:11;;;;;;;266.05;43.97;;;;;;;7.87;100.00;101383.53;4889724;29;20036;-75
2022/11/29 01:29:37;;;;;;;450.25;56.53;;;;;;;7.87;100.00;101383.53;4889790;29;20390;-73
2022/11/29 01:32:03;;;;;;;243.88;44.70;;;;;;;7.87;100.00;101380.88;4884247;29;20077;-75
2022/11/29 01:34:29;;;;;;;423.80;52.72;;;;;;;7.67;100.00;101385.25;4888688;29;20084;-75
2022/11/29 01:36:54;;;;;;;481.00;55.03;;;;;;;7.68;100.00;101381.69;4889154;29;20033;-75
2022/11/29 01:39:19;;;;;;;536.47;61.35;;;;;;;7.66;100.00;101393.28;4889937;29;20112;-76
2022/11/29 01:41:45;;;;;;;356.35;49.67;;;;;;;7.71;100.00;101384.19;4889538;29;20048;-75
2022/11/29 01:44:10;;;;;;;359.80;50.42;;;;;;;7.65;100.00;101392.44;4889601;29;20057;-74
2022/11/29 01:46:38;;;;;;;330.10;46.72;;;;;;;7.76;100.00;101389.31;4887871;29;20037;-75
2022/11/29 01:49:32;;;;;;;375.80;50.47;;;;;;;7.77;100.00;101391.88;4889255;29;20040;-74
2022/11/29 01:52:17;;;;;;;338.95;50.58;;;;;;;7.82;100.00;101391.69;4878813;29;22322;-74
2022/11/29 01:54:47;;;;;;;403.90;54.20;;;;;;;7.82;100.00;101394.34;4877147;29;20063;-76
2022/11/29 01:57:12;;;;;;;474.98;59.90;;;;;;;7.81;100.00;101403.25;4888762;29;20596;-73
2022/11/29 01:59:44;;;;;;;526.58;65.20;;;;;;;7.69;100.00;101411.75;4888531;29;20060;-76
2022/11/29 02:02:31;;;;;;;534.33;64.90;;;;;;;7.68;100.00;101408.22;4877151;29;20041;-75
2022/11/29 02:04:58;;;;;;;571.60;62.92;;;;;;;7.73;100.00;101402.69;4877367;29;20075;-74
2022/11/29 02:07:24;;;;;;;496.27;59.10;;;;;;;7.74;100.00;101400.00;4889713;29;20040;-76
2022/11/29 02:09:49;;;;;;;468.92;55.78;;;;;;;7.72;100.00;101406.28;4889099;29;20095;-75
2022/11/29 02:12:30;;;;;;;438.08;58.28;;;;;;;7.76;100.00;101410.53;4888309;29;20781;-75
2022/11/29 02:15:24;;;;;;;518.22;63.55;;;;;;;7.85;100.00;101404.00;4889382;29;20064;-75
2022/11/29 02:18:03;;;;;;;455.88;57.85;;;;;;;7.75;100.00;101406.16;4889367;29;20044;-75
2022/11/29 02:20:52;;;;;;;511.05;60.55;;;;;;;7.68;100.00;101397.63;4888176;29;20175;-75
2022/11/29 02:23:24;;;;;;;530.55;63.40;;;;;;;7.62;100.00;101399.66;4887182;29;20056;-75
2022/11/29 02:25:58;;;;;;;415.83;57.70;;;;;;;7.66;100.00;101398.59;4888874;29;20123;-75
2022/11/29 02:28:48;;;;;;;411.27;57.55;;;;;;;7.68;100.00;101397.63;4889001;29;20136;-75
2022/11/29 02:31:16;;;;;;;459.15;62.67;;;;;;;7.70;100.00;101400.19;4888739;29;20036;-76
2022/11/29 02:34:09;;;;;;;407.50;54.13;;;;;;;7.64;100.00;101408.44;4885024;29;20032;-74
2022/11/29 02:36:53;;;;;;;370.83;54.80;;;;;;;7.72;100.00;101409.81;4888831;29;20048;-76
2022/11/29 02:40:10;;;;;;;348.30;51.97;;;;;;;7.68;100.00;101404.69;4894503;29;20393;-75
2022/11/29 02:43:08;;;;;;;318.83;50.13;;;;;;;7.70;100.00;101408.16;4879033;29;20037;-75
2022/11/29 02:46:03;;;;;;;364.08;51.17;;;;;;;7.67;100.00;101413.59;4859099;29;20080;-74
2022/11/29 02:48:54;;;;;;;361.98;49.40;;;;;;;7.65;100.00;101415.44;4888775;29;20159;-74
2022/11/29 02:51:36;;;;;;;397.20;53.95;;;;;;;7.64;100.00;101411.94;4889277;29;20045;-74
2022/11/29 02:54:07;;;;;;;371.05;51.17;;;;;;;7.70;100.00;101411.69;4888790;29;20041;-75
2022/11/29 02:57:12;;;;;;;347.10;48.90;;;;;;;7.72;100.00;101412.47;4889019;29;20040;-75
2022/11/29 02:59:58;;;;;;;310.77;45.80;;;;;;;7.73;100.00;101415.97;4875501;29;20051;-75
2022/11/29 03:02:33;;;;;;;417.77;52.40;;;;;;;7.64;100.00;101419.03;4887710;29;20056;-75
2022/11/29 03:05:23;;;;;;;394.17;53.58;;;;;;;7.65;100.00;101420.75;4888481;29;20124;-75
2022/11/29 03:08:07;;;;;;;357.15;45.78;;;;;;;7.68;100.00;101421.50;4888305;29;20615;-75
2022/11/29 03:10:56;;;;;;;344.73;50.83;;;;;;;7.67;100.00;101426.84;4888578;29;20075;-75
2022/11/29 03:14:03;;;;;;;285.63;46.80;;;;;;;7.59;100.00;101434.28;4888907;29;20077;-75
2022/11/29 03:16:41;;;;;;;361.75;48.28;;;;;;;7.59;100.00;101442.25;4855606;29;20116;-74
2022/11/29 03:19:21;;;;;;;309.33;46.47;;;;;;;7.59;100.00;101436.94;4888946;29;21060;-75
2022/11/29 03:22:24;;;;;;;325.73;48.33;;;;;;;7.56;100.00;101440.56;4888780;29;20052;-75
2022/11/29 03:24:57;;;;;;;275.60;42.10;;;;;;;7.55;100.00;101438.00;4888517;29;20041;-75
2022/11/29 03:27:41;;;;;;;;;;;;;;;7.50;100.00;101444.34;4889155;29;20852;-76
2022/11/29 03:30:11;;;;;;;283.75;41.08;;;;;;;7.51;100.00;101447.88;4875812;29;19942;-74
2022/11/29 03:32:50;;;;;;;271.02;42.97;;;;;;;7.55;100.00;101448.63;4879997;29;20562;-75
2022/11/29 03:35:38;;;;;;;322.05;43.67;;;;;;;7.48;100.00;101448.88;4876562;29;20443;-76
2022/11/29 03:38:15;;;;;;;276.50;41.30;;;;;;;7.50;100.00;101447.00;4888121;29;20128;-75
2022/11/29 03:40:51;;;;;;;281.60;44.25;;;;;;;7.60;100.00;101451.94;4888417;29;20053;-76
2022/11/29 03:43:33;;;;;;;362.85;46.38;;;;;;;7.60;100.00;101455.44;4888266;29;20569;-74
2022/11/29 03:46:07;;;;;;;367.95;49.80;;;;;;;7.58;100.00;101462.63;4888659;29;20040;-75
2022/11/29 03:48:51;;;;;;;398.98;49.78;;;;;;;7.63;100.00;101468.63;4888084;29;20055;-75
2022/11/29 03:51:27;;;;;;;464.42;52.85;;;;;;;7.44;100.00;101468.50;4888733;29;20032;-75
2022/11/29 03:53:58;;;;;;;411.88;51.40;;;;;;;7.39;100.00;101470.47;4888457;29;20063;-75
2022/11/29 03:56:30;;;;;;;386.00;48.45;;;;;;;7.46;100.00;101463.97;4889243;29;20105;-74
2022/11/29 03:59:28;;;;;;;302.30;43.27;;;;;;;7.52;100.00;101468.16;4887756;29;20064;-75
2022/11/29 04:02:19;;;;;;;324.02;45.25;;;;;;;7.36;100.00;101472.38;4889962;29;20561;-75
2022/11/29 04:05:08;;;;;;;332.65;43.20;;;;;;;7.38;100.00;101481.13;4889847;29;20048;-74
2022/11/29 04:08:15;;;;;;;304.38;43.90;;;;;;;7.47;100.00;101486.91;4877254;29;20094;-74
2022/11/29 04:11:17;;;;;;;408.08;47.92;;;;;;;7.35;100.00;101490.06;4830363;29;20152;-74
2022/11/29 04:14:33;;;;;;;283.55;44.15;;;;;;;7.37;100.00;101487.34;4830762;29;20042;-75
2022/11/29 04:17:30;;;;;;;255.35;38.17;;;;;;;7.54;100.00;101492.88;4806876;29;20050;-76
2022/11/29 04:20:17;;;;;;;222.80;37.30;;;;;;;7.55;100.00;101491.94;4813250;29;20145;-74
2022/11/29 04:23:06;;;;;;;211.27;33.60;;;;;;;7.65;100.00;101495.06;4813698;29;20058;-75
2022/11/29 04:25:59;;;;;;;246.65;36.95;;;;;;;7.60;100.00;101489.09;4814458;29;20245;-74
2022/11/29 04:28:42;;;;;;;287.45;40.97;;;;;;;7.54;100.00;101482.25;4813950;29;20058;-74
2022/11/29 04:31:42;;;;;;;258.38;40.70;;;;;;;7.50;100.00;101488.59;4813614;29;20083;-74
2022/11/29 04:34:30;;;;;;;290.67;40.63;;;;;;;7.54;100.00;101484.91;4798201;29;20070;-75
2022/11/29 04:36:57;;;;;;;287.27;40.00;;;;;;;7.53;100.00;101489.34;4813899;29;20056;-75
2022/11/29 04:39:55;;;;;;;346.20;42.33;;;;;;;7.46;100.00;101487.84;4814103;29;20103;-76
2022/11/29 04:42:40;;;;;;;254.88;37.30;;;;;;;7.43;100.00;101493.31;4839798;29;20064;-75
2022/11/29 04:45:08;;;;;;;223.88;35.65;;;;;;;7.50;100.00;101492.13;4842034;29;20057;-76
2022/11/29 04:47:40;;;;;;;275.52;38.97;;;;;;;7.53;100.00;101493.78;4853189;29;20190;-73
2022/11/29 04:50:05;;;;;;;317.83;44.40;;;;;;;7.56;100.00;101492.78;4855495;29;20038;-76
2022/11/29 04:53:03;;;;;;;277.38;40.80;;;;;;;7.61;100.00;101494.34;4886071;29;20843;-75
2022/11/29 04:55:32;;;;;;;260.15;39.88;;;;;;;7.58;100.00;101502.44;4882890;29;20135;-75
2022/11/29 04:58:25;;;;;;;220.65;36.38;;;;;;;7.56;100.00;101498.97;4876722;29;20040;-76
2022/11/29 05:01:12;;;;;;;255.30;38.30;;;;;;;7.62;100.00;101511.13;4893291;29;20080;-75
2022/11/29 05:03:48;;;;;;;258.23;38.40;;;;;;;7.48;100.00;101509.91;4886476;29;20049;-75
2022/11/29 05:06:19;;;;;;;234.27;36.38;;;;;;;7.44;100.00;101516.25;4893232;29;20055;-75
2022/11/29 05:08:59;;;;;;;236.87;36.00;;;;;;;7.50;100.00;101525.75;4892357;29;20523;-74
2022/11/29 05:11:34;;;;;;;315.35;41.75;;;;;;;7.45;100.00;101530.38;4896560;29;20099;-75
2022/11/29 05:14:14;;;;;;;294.00;43.63;;;;;;;7.51;100.00;101525.69;4892419;29;20063;-76
2022/11/29 05:16:45;;;;;;;311.35;44.78;;;;;;;7.48;100.00;101535.53;4884713;29;20069;-74
2022/11/29 05:19:24;;;;;;;274.90;38.65;;;;;;;7.46;100.00;101540.91;4891486;29;20044;-76
2022/11/29 05:22:03;;;;;;;320.58;40.22;;;;;;;7.50;100.00;101537.22;4891882;29;20052;-75
2022/11/29 05:24:31;;;;;;;278.60;41.58;;;;;;;7.51;100.00;101538.94;4893046;29;20048;-76
2022/11/29 05:27:09;;;;;;;267.25;41.45;;;;;;;7.55;100.00;101536.19;4891789;29;20044;-76
2022/11/29 05:29:52;;;;;;;289.15;40.65;;;;;;;7.55;100.00;101536.19;4885907;29;20037;-75
2022/11/29 05:32:39;;;;;;;268.40;39.90;;;;;;;7.47;100.00;101539.13;4885780;29;20054;-75
2022/11/29 05:35:23;;;;;;;206.85;35.20;;;;;;;7.52;100.00;101530.06;4892377;29;20043;-75
2022/11/29 05:38:17;;;;;;;363.08;43.17;;;;;;;7.41;100.00;101534.94;4891053;29;20632;-73
2022/11/29 05:40:52;;;;;;;364.73;42.45;;;;;;;7.52;100.00;101535.38;4892169;29;20044;-75
2022/11/29 05:43:36;;;;;;;307.83;43.08;;;;;;;7.42;100.00;101536.66;4890807;29;20813;-75
2022/11/29 05:46:21;;;;;;;266.80;39.17;;;;;;;7.53;100.00;101547.72;4890607;29;20541;-75
2022/11/29 05:48:49;;;;;;;295.00;44.50;;;;;;;7.45;100.00;101555.13;4897093;29;20577;-75
2022/11/29 05:51:21;;;;;;;243.82;39.03;;;;;;;7.50;100.00;101554.94;4881930;29;20484;-75
2022/11/29 05:54:31;;;;;;;361.25;42.72;;;;;;;7.39;100.00;101555.38;4888578;29;20052;-75
2022/11/29 05:57:19;;;;;;;430.20;44.72;;;;;;;7.39;100.00;101568.63;4887546;29;20076;-75
2022/11/29 05:59:47;;;;;;;461.75;47.70;;;;;;;7.19;100.00;101579.13;4886694;29;20036;-75
2022/11/29 06:02:37;;;;;;;475.27;47.25;;;;;;;7.26;100.00;101575.31;4889100;29;20052;-75
2022/11/29 06:05:31;;;;;;;372.75;43.97;;;;;;;7.27;100.00;101582.34;4891201;29;20183;-74
2022/11/29 06:08:33;;;;;;;257.17;36.97;;;;;;;7.29;100.00;101582.31;4864637;29;20056;-73
2022/11/29 06:11:12;;;;;;;229.23;39.10;;;;;;;7.27;100.00;101577.91;4884948;29;20047;-74
2022/11/29 06:13:56;;;;;;;217.82;34.88;;;;;;;7.33;100.00;101581.25;4885964;29;20476;-75
2022/11/29 06:16:51;;;;;;;209.02;34.90;;;;;;;7.31;100.00;101583.97;4883173;29;20101;-73
2022/11/29 06:19:55;;;;;;;243.73;36.58;;;;;;;7.30;100.00;101587.53;4881664;29;20048;-75
2022/11/29 06:23:06;;;;;;;239.13;35.47;;;;;;;7.34;100.00;101583.00;4824086;29;20049;-75
2022/11/29 06:25:57;;;;;;;271.20;38.15;;;;;;;7.37;100.00;101581.06;4794542;29;20531;-74
2022/11/29 06:29:18;;;;;;;240.13;38.55;;;;;;;7.41;100.00;101593.31;4794659;29;20093;-75
2022/11/29 06:31:49;;;;;;;310.77;42.67;;;;;;;7.44;100.00;101601.16;4788881;29;20051;-75
2022/11/29 06:34:28;;;;;;;300.40;38.63;;;;;;;7.41;100.00;101601.25;4791347;29;20136;-73
2022/11/29 06:37:00;;;;;;;307.05;42.47;;;;;;;7.41;100.00;101605.72;4798639;29;20063;-75
2022/11/29 06:39:26;;;;;;;366.25;49.40;;;;;;;7.48;100.00;101610.75;4794882;29;20059;-74
2022/11/29 06:41:52;;;;;;;303.48;44.25;;;;;;;7.48;100.00;101618.69;4799639;29;20435;-73
2022/11/29 06:44:17;;;;;;;253.70;37.25;;;;;;;7.50;100.00;101621.28;4793285;29;20138;-74
2022/11/29 06:46:45;;;;;;;333.02;46.55;;;;;;;7.45;100.00;101624.09;4793621;29;20134;-75
2022/11/29 06:49:27;;;;;;;288.63;38.60;;;;;;;7.40;100.00;101628.72;4793614;29;20063;-74
2022/11/29 06:52:17;;;;;;;363.85;45.25;;;;;;;7.34;100.00;101625.44;4793899;29;20058;-75
2022/11/29 06:55:02;;;;;;;314.90;41.53;;;;;;;7.35;100.00;101635.13;4843323;29;20780;-75
2022/11/29 06:57:59;;;;;;;258.02;41.63;;;;;;;7.35;100.00;101638.66;4881192;29;20064;-73
2022/11/29 07:00:31;;;;;;;276.15;40.58;;;;;;;7.38;100.00;101637.66;4888689;29;20056;-73
2022/11/29 07:03:15;;;;;;;273.70;36.95;;;;;;;7.45;100.00;101642.69;4878792;29;20324;-74
2022/11/29 07:05:40;;;;;;;323.52;41.60;;;;;;;7.40;100.00;101649.94;4886439;29;20048;-73
2022/11/29 07:08:19;;;;;;;263.40;38.83;;;;;;;7.39;100.00;101653.53;4886819;29;20040;-73
2022/11/29 07:10:50;;;;;;;281.88;39.88;;;;;;;7.46;100.00;101649.72;4888418;29;20052;-74
2022/11/29 07:13:17;;;;;;;309.00;41.17;;;;;;;7.45;100.00;101653.31;4888220;29;20041;-73
2022/11/29 07:16:00;;;;;;;318.25;40.65;;;;;;;7.47;100.00;101646.13;4888191;29;20049;-74
2022/11/29 07:19:03;;;;;;;272.38;38.03;;;;;;;7.52;100.00;101651.28;4888107;29;20044;-75
2022/11/29 07:21:54;;;;;;;326.38;40.00;;;;;;;7.47;100.00;101655.88;4888205;29;20770;-74
2022/11/29 07:24:24;;;;;;;295.50;42.05;;;;;;;7.49;100.00;101656.72;4886199;29;20864;-75
2022/11/29 07:26:54;;;;;;;273.15;37.65;;;;;;;7.52;100.00;101656.56;4887916;29;20084;-75
2022/11/29 07:29:27;;;;;;;285.67;41.50;;;;;;;7.45;100.00;101653.31;4886232;29;20089;-75
2022/11/29 07:32:04;;;;;;;261.58;38.10;;;;;;;7.45;100.00;101660.41;4886329;29;20573;-74
2022/11/29 07:34:56;;;;;;;292.55;39.03;;;;;;;7.55;100.00;101664.44;4886094;29;20494;-75
2022/11/29 07:37:59;;;;;;;265.77;38.22;;;;;;;7.56;100.00;101667.94;4887669;29;20817;-75
2022/11/29 07:41:06;;;;;;;312.52;40.50;;;;;;;7.64;100.00;101680.03;4894725;29;20043;-74
2022/11/29 07:43:53;;;;;;;327.17;43.50;;;;;;;7.62;100.00;101679.19;4873510;29;20080;-74
2022/11/29 07:46:18;;;;;;;327.15;43.47;;;;;;;7.54;100.00;101686.59;4884225;29;20084;-73
2022/11/29 07:48:44;;;;;;;302.05;41.47;;;;;;;7.68;100.00;101692.25;4886884;29;20091;-75
2022/11/29 07:51:09;;;;;;;318.00;44.30;;;;;;;7.71;100.00;101694.78;4885749;29;20053;-75
2022/11/29 07:53:41;;;;;;;281.15;40.97;;;;;;;7.64;100.00;101690.63;4887285;29;20046;-76
2022/11/29 07:56:11;;;;;;;308.33;42.55;;;;;;;7.70;100.00;101694.84;4887659;29;20055;-75
2022/11/29 07:58:37;;;;;;;312.52;43.00;;;;;;;7.64;100.00;101695.94;4886167;29;20512;-75
2022/11/29 08:01:03;;;;;;;292.23;42.00;;;;;;;7.70;100.00;101689.53;4887778;29;20047;-75
2022/11/29 08:03:28;;;;;;;314.83;42.08;;;;;;;7.69;100.00;101699.28;4898535;29;20040;-73
2022/11/29 08:05:54;;;;;;;278.75;42.30;;;;;;;7.74;100.00;101693.81;4891288;29;20080;-74
2022/11/29 08:08:19;;;;;;;299.30;44.65;;;;;;;7.72;100.00;101701.81;4887958;29;20134;-75
2022/11/29 08:10:45;;;;;;;295.60;43.00;;;;;;;7.74;100.00;101702.63;4887254;29;20044;-75
2022/11/29 08:13:10;;;;;;;272.65;40.50;;;;;;;7.87;100.00;101703.03;4887729;29;20044;-74
2022/11/29 08:15:36;;;;;;;258.33;39.63;;;;;;;7.88;100.00;101711.84;4888433;29;20040;-76
2022/11/29 08:18:02;;;;;;;278.67;40.70;;;;;;;7.91;100.00;101709.09;4890408;29;20095;-73
2022/11/29 08:20:27;;;;;;;286.95;43.88;;;;;;;7.96;100.00;101707.13;4892477;29;20762;-75
2022/11/29 08:22:57;;;;;;;302.15;44.55;;;;;;;7.94;100.00;101711.66;4890347;29;20039;-75
2022/11/29 08:25:24;;;;;;;290.35;41.08;;;;;;;7.93;100.00;101717.84;4892566;29;20045;-76
2022/11/29 08:27:50;;;;;;;285.73;43.78;;;;;;;7.97;100.00;101708.84;4893001;29;20097;-75
2022/11/29 08:30:22;;;;;;;276.08;41.47;;;;;;;7.94;100.00;101715.16;4892022;29;20099;-75
2022/11/29 08:32:49;;;;;;;301.42;44.15;;;;;;;8.04;100.00;101707.72;4886533;29;20572;-76
2022/11/29 08:35:16;;;;;;;286.45;43.03;;;;;;;8.06;100.00;101713.81;4881777;29;20074;-76
2022/11/29 08:37:42;;;;;;;303.35;43.72;;;;;;;8.03;100.00;101720.13;4890249;29;20116;-73
2022/11/29 08:40:08;;;;;;;333.67;44.72;;;;;;;7.93;100.00;101721.41;4891360;29;20040;-74
2022/11/29 08:42:33;;;;;;;287.65;44.47;;;;;;;7.97;100.00;101725.66;4890817;29;20144;-75
2022/11/29 08:44:59;;;;;;;270.55;41.55;;;;;;;7.94;100.00;101724.91;4890415;29;20047;-74
2022/11/29 08:47:36;;;;;;;293.50;45.40;;;;;;;7.94;100.00;101723.13;4888893;29;20048;-75
2022/11/29 08:50:10;;;;;;;241.25;40.35;;;;;;;7.95;100.00;101721.34;4889474;29;20152;-75
2022/11/29 08:55:25;;;;;;;217.35;41.22;;;;;;;7.93;100.00;101725.81;4890811;29;20052;-76
2022/11/29 08:57:58;;;;;;;259.25;41.03;;;;;;;7.97;100.00;101732.75;4890917;29;20044;-75
2022/11/29 09:00:24;;;;;;;267.02;42.90;;;;;;;7.99;100.00;101733.56;4876853;29;20058;-74
2022/11/29 09:02:50;;;;;;;198.80;35.03;;;;;;;8.04;100.00;101740.44;4890553;29;20888;-74
2022/11/29 09:05:15;;;;;;;216.18;35.53;;;;;;;7.98;100.00;101737.13;4888776;29;20045;-74
2022/11/29 09:07:41;;;;;;;263.70;41.72;;;;;;;7.88;100.00;101743.72;4895365;29;20052;-75
2022/11/29 09:10:08;;;;;;;276.92;42.53;;;;;;;7.97;100.00;101740.72;4889554;29;20087;-74
2022/11/29 09:12:35;;;;;;;283.33;44.50;;;;;;;8.00;100.00;101740.63;4890039;29;20040;-74
2022/11/29 09:15:03;;;;;;;254.23;43.22;;;;;;;8.05;100.00;101747.47;4889571;29;20115;-75
2022/11/29 09:17:28;;;;;;;237.50;43.90;;;;;;;8.15;100.00;101755.09;4890020;29;20028;-75
2022/11/29 09:19:54;;;;;;;248.80;45.65;;;;;;;8.10;100.00;101747.31;4888337;29;20052;-74
2022/11/29 09:22:19;;;;;;;207.70;41.95;;;;;;;8.09;100.00;101755.34;4889913;29;20051;-76
2022/11/29 09:24:45;;;;;;;197.35;37.38;;;;;;;8.20;100.00;101750.47;4890156;29;20450;-76
2022/11/29 09:27:11;;;;;;;210.98;38.92;;;;;;;8.11;100.00;101762.31;4888116;29;20052;-76
2022/11/29 09:29:37;;;;;;;222.30;38.47;;;;;;;8.25;100.00;101764.44;4887679;29;20037;-73
2022/11/29 09:32:03;;;;;;;207.77;35.97;;;;;;;8.24;100.00;101768.03;4890256;29;20088;-74
2022/11/29 09:34:28;;;;;;;171.70;35.42;;;;;;;8.05;100.00;101768.72;4887665;29;20032;-73
2022/11/29 09:36:54;;;;;;;188.60;37.55;;;;;;;8.12;100.00;101779.13;4889087;29;20047;-76
2022/11/29 09:39:19;;;;;;;203.88;37.55;;;;;;;8.13;100.00;101775.53;4887559;29;20041;-75
2022/11/29 09:42:08;;;;;;;211.98;36.97;;;;;;;8.16;100.00;101786.91;4889381;29;20051;-74
2022/11/29 09:44:51;;;;;;;177.90;34.58;;;;;;;8.27;100.00;101790.00;4889848;29;20805;-75
2022/11/29 09:47:16;;;;;;;;;;;;;;;8.16;100.00;101794.88;4889644;29;20557;-74
2022/11/29 09:49:54;;;;;;;176.13;34.83;;;;;;;8.34;100.00;101803.09;4887745;29;19915;-73
2022/11/29 09:52:35;;;;;;;195.45;37.83;;;;;;;8.32;100.00;101797.81;4889201;29;20051;-74
2022/11/29 09:55:19;;;;;;;192.15;37.53;;;;;;;8.43;100.00;101806.25;4888945;29;20790;-75
2022/11/29 09:57:47;;;;;;;196.40;36.35;;;;;;;8.34;100.00;101803.94;4889203;29;20152;-72
2022/11/29 10:00:15;;;;;;;147.88;30.20;;;;;;;8.31;100.00;101812.03;4889050;29;20143;-75
2022/11/29 10:02:46;;;;;;;142.10;28.77;;;;;;;8.30;100.00;101812.97;4889124;29;20715;-75
2022/11/29 10:05:19;;;;;;;128.30;27.33;;;;;;;8.26;100.00;101814.00;4888060;29;20044;-74
2022/11/29 10:07:49;;;;;;;122.03;26.73;;;;;;;8.20;100.00;101812.44;4888155;29;20076;-75
2022/11/29 10:10:26;;;;;;;99.47;24.10;;;;;;;8.25;100.00;101812.28;4889451;29;20911;-74
2022/11/29 10:13:04;;;;;;;111.45;22.80;;;;;;;8.21;100.00;101811.50;4877072;29;20098;-76
2022/11/29 10:15:34;;;;;;;94.10;21.75;;;;;;;8.28;100.00;101810.38;4889860;29;20060;-76
2022/11/29 10:18:09;;;;;;;91.72;22.08;;;;;;;8.45;100.00;101807.09;4887398;29;20971;-74
2022/11/29 10:20:41;;;;;;;84.57;23.55;;;;;;;8.45;100.00;101809.75;4871057;29;20044;-74
2022/11/29 10:23:33;;;;;;;86.40;23.30;;;;;;;8.44;100.00;101805.34;4888676;29;20080;-73
2022/11/29 10:25:58;;;;;;;93.03;24.70;;;;;;;8.54;100.00;101812.03;4888851;29;20591;-74
2022/11/29 10:28:29;;;;;;;76.32;22.85;;;;;;;8.50;100.00;101807.78;4888422;29;20045;-75
2022/11/29 10:31:00;;;;;;;79.45;23.38;;;;;;;8.65;100.00;101798.31;4888196;29;20129;-74
2022/11/29 10:33:31;;;;;;;81.80;21.27;;;;;;;8.76;100.00;101805.88;4883486;29;20040;-75
2022/11/29 10:36:01;;;;;;;82.25;21.77;;;;;;;8.57;100.00;101803.06;4888111;29;20045;-75
2022/11/29 10:38:26;;;;;;;81.75;20.83;;;;;;;8.72;100.00;101804.25;4887970;29;20051;-74
2022/11/29 10:41:07;;;;;;;79.43;20.15;;;;;;;8.86;100.00;101807.22;4887299;29;20048;-75
2022/11/29 10:43:36;;;;;;;72.20;21.63;;;;;;;8.87;100.00;101800.97;4888228;29;20044;-73
2022/11/29 10:46:02;;;;;;;79.63;20.73;;;;;;;8.95;100.00;101804.19;4886020;29;20100;-74
2022/11/29 10:48:31;;;;;;;73.45;19.65;;;;;;;9.10;100.00;101801.84;4886302;29;20040;-75
2022/11/29 10:50:58;;;;;;;73.82;20.40;;;;;;;8.92;100.00;101799.00;4888035;29;20083;-75
2022/11/29 10:53:29;;;;;;;84.40;20.80;;;;;;;8.90;100.00;101802.66;4887832;29;20036;-74
2022/11/29 10:55:59;;;;;;;66.97;20.17;;;;;;;8.92;100.00;101801.66;4887867;29;20155;-76
2022/11/29 10:58:27;;;;;;;77.78;21.00;;;;;;;8.84;100.00;101803.78;4887693;29;20121;-74
2022/11/29 11:00:58;;;;;;;67.43;19.73;;;;;;;8.73;100.00;101800.66;4886439;29;20833;-75
2022/11/29 11:03:26;;;;;;;79.05;21.73;;;;;;;8.66;100.00;101808.03;4887668;29;20135;-74
2022/11/29 11:06:01;;;;;;;77.03;22.88;;;;;;;8.63;100.00;101807.28;4887605;29;20809;-74
2022/11/29 11:08:27;;;;;;;70.70;21.95;;;;;;;8.59;100.00;101803.91;4887469;29;20474;-75
2022/11/29 11:10:56;;;;;;;71.03;20.63;;;;;;;8.70;100.00;101801.66;4887686;29;20097;-75
2022/11/29 11:13:27;;;;;;;73.50;18.98;;;;;;;8.72;100.00;101807.78;4887236;29;20112;-75
2022/11/29 11:16:07;;;;;;;62.70;19.05;;;;;;;8.72;100.00;101810.44;4887180;29;20079;-74
2022/11/29 11:18:33;;;;;;;78.50;20.88;;;;;;;8.64;100.00;101809.03;4887210;29;20663;-75
2022/11/29 11:21:01;;;;;;;71.88;19.30;;;;;;;8.59;100.00;101805.69;4885898;29;20609;-75
2022/11/29 11:23:35;;;;;;;65.35;20.02;;;;;;;8.72;100.00;101812.22;4887505;29;20782;-74
2022/11/29 11:26:10;;;;;;;80.60;23.65;;;;;;;8.76;100.00;101804.06;4887764;29;20064;-75
2022/11/29 11:28:48;;;;;;;66.75;21.80;;;;;;;8.67;100.00;101816.88;4887792;29;20120;-74
2022/11/29 11:31:13;;;;;;;63.10;17.77;;;;;;;8.74;100.00;101813.06;4885398;29;20885;-74
2022/11/29 11:33:44;;;;;;;64.70;19.73;;;;;;;8.65;100.00;101816.06;4885762;29;20037;-73
2022/11/29 11:36:18;;;;;;;73.22;21.38;;;;;;;8.52;100.00;101810.34;4886914;29;20053;-74
2022/11/29 11:39:10;;;;;;;70.28;20.30;;;;;;;8.60;100.00;101815.38;4887203;29;20060;-74
2022/11/29 11:44:37;;;;;;;63.17;20.00;;;;;;;8.77;100.00;101819.09;4887526;29;20055;-74
2022/11/29 11:47:05;;;;;;;61.38;19.55;;;;;;;8.66;100.00;101818.66;4887280;29;20045;-75
2022/11/29 11:49:45;;;;;;;64.60;19.15;;;;;;;8.72;100.00;101821.06;4887572;29;20163;-75
2022/11/29 11:52:41;;;;;;;76.47;18.45;;;;;;;8.75;100.00;101817.44;4887474;29;20049;-74